createdAt,value
2022-10-25T11:07:57.712Z,81.38
2022-10-25T11:11:21.215Z,81.63
2022-10-25T11:15:21.255Z,81.83
2022-10-25T11:19:54.352Z,81.98
2022-10-25T11:24:32.595Z,82.09
2022-10-25T11:28:48.380Z,82.16
2022-10-25T11:33:17.473Z,82.06
2022-10-25T11:37:35.793Z,81.59
2022-10-25T11:41:58.698Z,81.69
2022-10-25T11:46:29.078Z,81.46
2022-10-25T11:50:34.173Z,81.27
2022-10-25T11:54:59.530Z,81.13
2022-10-25T11:58:45.475Z,81.28
2022-10-25T12:02:40.202Z,81.20
2022-10-25T12:06:52.795Z,81.22
2022-10-25T12:11:18.732Z,81.31
2022-10-25T12:15:28.013Z,81.48
2022-10-25T12:19:24.870Z,81.46
2022-10-25T12:23:28.184Z,81.41
2022-10-25T12:27:29.853Z,81.39
2022-10-25T12:31:36.992Z,81.26
2022-10-25T12:35:40.458Z,81.34
2022-10-25T12:39:46.921Z,81.35
2022-10-25T12:43:32.769Z,81.27
2022-10-25T12:47:40.792Z,81.12
2022-10-25T12:52:05.338Z,81.12
2022-10-25T12:56:18.731Z,81.28
2022-10-25T13:00:23.691Z,81.52
2022-10-25T13:04:42.820Z,81.73
2022-10-25T13:08:43.321Z,81.86
2022-10-25T13:12:57.723Z,81.96
2022-10-25T13:21:54.224Z,82.06
2022-10-25T13:25:52.933Z,82.22
2022-10-25T13:34:35.688Z,82.65
2022-10-25T13:38:39.931Z,83.06
2022-10-25T13:42:39.887Z,83.00
2022-10-25T13:46:54.947Z,82.86
2022-10-25T13:51:16.652Z,82.85
2022-10-25T13:55:16.887Z,82.85
2022-10-25T13:59:53.998Z,82.82
2022-10-25T14:04:21.346Z,82.86
2022-10-25T14:13:02.279Z,83.14
2022-10-25T14:17:07.516Z,83.31
2022-10-25T14:21:09.835Z,83.51
2022-10-25T14:25:24.020Z,83.79
2022-10-25T14:29:25.479Z,84.15
2022-10-25T14:34:04.913Z,84.47
2022-10-25T14:38:23.231Z,84.75
2022-10-25T14:42:36.015Z,84.91
2022-10-25T14:46:35.337Z,84.93
2022-10-25T14:50:48.671Z,84.90
2022-10-25T14:54:56.012Z,84.90
2022-10-25T14:58:56.686Z,84.89
2022-10-25T15:03:04.622Z,84.90
2022-10-25T15:07:40.098Z,85.02
2022-10-25T15:12:25.441Z,85.17
2022-10-25T15:16:27.031Z,85.27
2022-10-25T15:20:32.108Z,85.40
2022-10-25T15:24:44.236Z,85.49
2022-10-25T15:29:00.092Z,85.58
2022-10-25T15:32:59.954Z,85.63
2022-10-25T15:36:58.906Z,85.56
2022-10-25T15:40:58.666Z,85.56
2022-10-25T15:45:12.899Z,85.61
2022-10-25T15:49:13.973Z,85.60
2022-10-25T15:52:49.754Z,85.54
2022-10-25T15:56:51.980Z,85.54
2022-10-25T16:01:05.215Z,85.60
2022-10-25T16:05:04.463Z,85.72
2022-10-25T16:09:04.866Z,85.83
2022-10-25T16:13:10.620Z,85.92
2022-10-25T16:17:10.644Z,86.02
2022-10-25T16:21:10.531Z,86.11
2022-10-25T16:25:10.219Z,86.20
2022-10-25T16:29:27.353Z,86.29
2022-10-25T16:33:40.741Z,86.33
2022-10-25T16:37:41.105Z,86.41
2022-10-25T16:41:45.978Z,86.51
2022-10-25T16:45:45.507Z,86.62
2022-10-25T16:49:44.845Z,86.69
2022-10-25T16:53:46.093Z,86.71
2022-10-25T16:57:45.995Z,86.81
2022-10-25T17:01:59.175Z,86.83
2022-10-25T17:05:59.155Z,86.88
2022-10-25T17:10:00.251Z,86.92
2022-10-25T17:13:59.965Z,86.96
2022-10-25T17:17:59.652Z,86.95
2022-10-25T17:22:00.560Z,87.08
2022-10-25T17:26:02.253Z,87.18
2022-10-25T17:30:18.435Z,87.23
2022-10-25T17:34:17.976Z,87.31
2022-10-25T17:38:18.261Z,87.33
2022-10-25T17:42:19.084Z,87.39
2022-10-25T17:46:24.786Z,87.41
2022-10-25T17:50:24.522Z,87.45
2022-10-25T17:54:23.972Z,87.50
2022-10-25T17:58:24.604Z,87.57
2022-10-25T18:02:23.964Z,87.56
2022-10-25T18:06:25.816Z,87.54
2022-10-25T18:10:25.267Z,87.65
2022-10-25T18:14:24.565Z,87.73
2022-10-25T18:18:24.272Z,87.79
2022-10-25T18:22:24.365Z,87.84
2022-10-25T18:26:25.392Z,87.91
2022-10-25T18:30:24.555Z,87.99
2022-10-25T18:34:24.073Z,88.11
2022-10-25T18:38:23.209Z,88.16
2022-10-25T18:42:22.306Z,88.19
2022-10-25T18:46:22.766Z,88.21
2022-10-25T18:50:39.168Z,88.27
2022-10-25T18:54:41.205Z,88.37
2022-10-25T18:58:41.038Z,88.43
2022-10-25T19:02:41.393Z,88.48
2022-10-25T19:06:40.687Z,88.53
2022-10-25T19:10:53.845Z,88.60
2022-10-25T19:14:53.194Z,88.57
2022-10-25T19:18:53.329Z,88.73
2022-10-25T19:22:54.088Z,88.76
2022-10-25T19:26:54.089Z,88.83
2022-10-25T19:30:54.227Z,88.90
2022-10-25T19:35:07.373Z,88.98
2022-10-25T19:39:20.491Z,89.03
2022-10-25T19:43:20.146Z,89.11
2022-10-25T19:47:19.939Z,89.08
2022-10-25T19:51:33.108Z,89.17
2022-10-25T19:55:32.563Z,89.20
2022-10-25T19:59:32.716Z,89.24
2022-10-25T20:03:34.025Z,89.29
2022-10-25T20:07:33.991Z,89.28
2022-10-25T20:11:47.079Z,89.28
2022-10-25T20:16:00.931Z,89.29
2022-10-25T20:20:00.187Z,89.31
2022-10-25T20:24:01.933Z,89.32
2022-10-25T20:28:14.765Z,89.34
2022-10-25T20:32:15.172Z,89.29
2022-10-25T20:36:16.352Z,89.32
2022-10-25T20:40:16.093Z,89.33
2022-10-25T20:44:17.627Z,89.34
2022-10-25T20:47:58.307Z,89.26
2022-10-25T20:56:24.471Z,88.66
2022-10-25T21:00:23.432Z,88.45
2022-10-25T21:04:49.489Z,88.19
2022-10-25T21:08:52.444Z,88.29
2022-10-25T21:12:51.864Z,88.42
2022-10-25T21:16:51.121Z,88.56
2022-10-25T21:20:50.492Z,88.66
2022-10-25T21:29:06.900Z,88.80
2022-10-25T21:33:19.860Z,88.87
2022-10-25T21:42:01.774Z,88.98
2022-10-25T21:45:42.324Z,89.03
2022-10-25T21:49:42.059Z,89.06
2022-10-25T21:53:44.977Z,89.11
2022-10-25T21:57:58.706Z,89.11
2022-10-25T22:02:12.199Z,89.10
2022-10-25T22:06:14.670Z,89.12
2022-10-25T22:10:13.905Z,89.09
2022-10-25T22:14:26.591Z,89.05
2022-10-25T22:22:53.786Z,88.95
2022-10-25T22:26:52.840Z,88.92
2022-10-25T22:31:07.796Z,88.88
2022-10-25T22:35:06.769Z,88.83
2022-10-25T22:39:08.282Z,88.82
2022-10-25T22:43:07.893Z,88.80
2022-10-25T22:47:08.027Z,88.81
2022-10-25T22:51:08.845Z,88.80
2022-10-25T22:55:10.571Z,88.78
2022-10-25T22:59:12.670Z,88.79
2022-10-25T23:03:12.257Z,88.83
2022-10-25T23:07:25.283Z,88.84
2022-10-25T23:11:26.981Z,88.83
2022-10-25T23:15:26.147Z,88.82
2022-10-25T23:19:25.589Z,88.80
2022-10-25T23:23:25.640Z,88.78
2022-10-25T23:27:25.210Z,88.79
2022-10-25T23:31:25.207Z,88.81
2022-10-25T23:35:24.886Z,88.81
2022-10-25T23:39:25.065Z,88.83
2022-10-25T23:43:38.342Z,88.84
2022-10-25T23:47:41.302Z,88.87
2022-10-25T23:51:40.422Z,88.79
2022-10-25T23:55:40.602Z,88.81
2022-10-25T23:59:39.885Z,88.81
